createdAt,value
2019-05-21T00:02:28.291Z,99853.00
2019-05-21T00:04:58.111Z,99856.75
2019-05-21T00:07:28.076Z,99853.71
2019-05-21T00:09:58.130Z,99858.64
2019-05-21T00:12:28.113Z,99862.63
2019-05-21T00:14:57.995Z,99858.41
2019-05-21T00:17:27.799Z,99858.75
2019-05-21T00:19:57.585Z,99859.36
2019-05-21T00:22:27.520Z,99854.91
2019-05-21T00:24:57.319Z,99859.13
2019-05-21T00:27:27.304Z,99864.15
2019-05-21T00:30:34.218Z,99861.94
2019-05-21T00:33:40.269Z,99862.17
2019-05-21T00:36:48.118Z,99877.98
2019-05-21T00:39:53.990Z,99869.55
2019-05-21T00:42:36.113Z,99867.91
2019-05-21T00:45:08.851Z,99871.89
2019-05-21T00:47:38.975Z,99871.32
2019-05-21T00:50:10.041Z,99872.84
2019-05-21T00:52:39.752Z,99871.54
2019-05-21T00:55:09.740Z,99873.42
2019-05-21T00:57:39.586Z,99872.73
2019-05-21T01:00:10.017Z,99877.09
2019-05-21T01:02:40.022Z,99872.64
2019-05-21T01:05:09.986Z,99871.32
2019-05-21T01:07:39.726Z,99876.48
2019-05-21T01:10:09.909Z,99885.39
2019-05-21T01:12:39.714Z,99889.61
2019-05-21T01:15:09.761Z,99890.55
2019-05-21T01:17:39.448Z,99888.44
2019-05-21T01:20:09.352Z,99884.59
2019-05-21T01:22:39.126Z,99883.98
2019-05-21T01:25:10.126Z,99886.94
2019-05-21T01:27:40.005Z,99894.31
2019-05-21T01:30:10.126Z,99896.31
2019-05-21T01:32:39.915Z,99895.95
2019-05-21T01:35:17.245Z,99894.77
2019-05-21T01:37:41.487Z,99899.36
2019-05-21T01:40:11.403Z,99897.82
2019-05-21T01:42:41.340Z,99891.73
2019-05-21T01:45:11.336Z,99893.50
2019-05-21T01:47:41.080Z,99890.69
2019-05-21T01:50:10.934Z,99893.38
2019-05-21T01:52:40.797Z,99892.91
2019-05-21T01:55:10.670Z,99894.08
2019-05-21T01:57:40.469Z,99901.72
2019-05-21T02:00:10.330Z,99899.47
2019-05-21T02:02:40.088Z,99900.78
2019-05-21T02:05:10.029Z,99904.17
2019-05-21T02:07:39.838Z,99897.84
2019-05-21T02:10:10.025Z,99897.61
2019-05-21T02:12:39.880Z,99894.20
2019-05-21T02:15:10.343Z,99903.34
2019-05-21T02:17:40.102Z,99903.94
2019-05-21T02:20:10.044Z,99902.17
2019-05-21T02:22:39.938Z,99912.38
2019-05-21T02:25:10.027Z,99919.87
2019-05-21T02:27:39.748Z,99925.72
2019-05-21T02:30:11.334Z,99924.32
2019-05-21T02:32:41.118Z,99923.61
2019-05-21T02:35:10.965Z,99920.20
2019-05-21T02:37:40.773Z,99915.28
2019-05-21T02:40:11.827Z,99921.04
2019-05-21T02:42:41.715Z,99911.91
2019-05-21T02:45:11.976Z,99914.48
2019-05-21T02:47:41.799Z,99914.71
2019-05-21T02:50:12.177Z,99920.10
2019-05-21T02:52:42.051Z,99921.27
2019-05-21T02:55:12.507Z,99917.63
2019-05-21T02:57:42.374Z,99914.48
2019-05-21T03:00:38.468Z,99921.50
2019-05-21T03:03:05.926Z,99914.48
2019-05-21T03:05:35.788Z,99919.27
2019-05-21T03:08:05.695Z,99917.99
2019-05-21T03:10:35.460Z,99912.60
2019-05-21T03:13:05.366Z,99915.89
2019-05-21T03:15:35.060Z,99919.63
2019-05-21T03:18:05.955Z,99917.53
2019-05-21T03:20:35.767Z,99916.59
2019-05-21T03:23:05.649Z,99932.05
2019-05-21T03:25:35.382Z,99938.70
2019-05-21T03:28:05.333Z,99936.50
2019-05-21T03:30:35.098Z,99940.95
2019-05-21T03:33:05.222Z,99936.59
2019-05-21T03:35:35.015Z,99935.33
2019-05-21T03:38:04.896Z,99939.30
2019-05-21T03:40:34.625Z,99940.11
2019-05-21T03:43:04.630Z,99946.90
2019-05-21T03:45:34.953Z,99956.17
2019-05-21T03:48:04.945Z,99953.36
2019-05-21T03:50:34.728Z,99949.61
2019-05-21T03:53:04.652Z,99956.41
2019-05-21T03:55:34.490Z,99949.95
2019-05-21T03:58:04.459Z,99954.86
2019-05-21T04:00:34.256Z,99952.75
2019-05-21T04:03:04.389Z,99956.27
2019-05-21T04:05:34.110Z,99953.92
2019-05-21T04:08:03.951Z,99957.81
2019-05-21T04:10:33.784Z,99956.88
2019-05-21T04:13:07.256Z,99955.34
2019-05-21T04:16:02.883Z,99960.16
2019-05-21T04:18:46.780Z,99965.88
2019-05-21T04:21:16.681Z,99968.13
2019-05-21T04:23:46.930Z,99976.33
2019-05-21T04:26:16.882Z,99974.55
2019-05-21T04:28:46.954Z,99975.63
2019-05-21T04:31:16.791Z,99976.80
2019-05-21T04:33:46.731Z,99967.56
2019-05-21T04:36:16.707Z,99965.55
2019-05-21T04:38:46.531Z,99975.06
2019-05-21T04:41:16.440Z,99975.86
2019-05-21T04:43:47.189Z,99968.50
2019-05-21T04:46:17.001Z,99971.55
2019-05-21T04:48:46.798Z,99975.16
2019-05-21T04:51:16.629Z,99986.17
2019-05-21T04:53:46.473Z,99990.76
2019-05-21T04:56:16.294Z,99993.20
2019-05-21T04:58:46.090Z,99994.84
2019-05-21T05:01:15.935Z,100001.64
2019-05-21T05:03:45.736Z,100004.92
2019-05-21T05:06:15.647Z,99999.33
2019-05-21T05:08:46.409Z,100000.81
2019-05-21T05:11:16.194Z,99999.78
2019-05-21T05:13:47.942Z,99993.91
2019-05-21T05:16:17.782Z,99987.45
2019-05-21T05:18:47.549Z,99992.75
2019-05-21T05:21:17.345Z,99993.31
2019-05-21T05:23:47.266Z,99996.67
2019-05-21T05:26:17.084Z,100000.63
2019-05-21T05:28:47.181Z,99996.96
2019-05-21T05:31:17.040Z,99998.91
2019-05-21T05:33:46.947Z,99991.30
2019-05-21T05:36:16.831Z,100003.13
2019-05-21T05:38:46.735Z,100018.12
2019-05-21T05:41:16.906Z,100019.58
2019-05-21T05:43:46.701Z,100015.05
2019-05-21T05:46:16.670Z,100009.38
2019-05-21T05:48:55.364Z,100008.20
2019-05-21T05:51:25.301Z,100003.08
2019-05-21T05:53:58.002Z,99970.59
2019-05-21T05:56:28.855Z,100007.44
2019-05-21T05:58:58.703Z,100009.33
2019-05-21T06:01:30.213Z,100011.25
2019-05-21T06:03:59.926Z,100015.02
2019-05-21T06:06:30.756Z,100017.77
2019-05-21T06:09:00.474Z,100015.25
2019-05-21T06:11:30.630Z,100017.69
2019-05-21T06:14:00.397Z,100017.53
2019-05-21T06:16:30.219Z,100018.49
2019-05-21T06:19:00.024Z,100025.73
2019-05-21T06:21:29.909Z,100028.02
2019-05-21T06:23:59.692Z,100035.34
2019-05-21T06:26:29.495Z,100035.28
2019-05-21T06:28:59.224Z,100038.20
2019-05-21T06:31:29.046Z,100036.50
2019-05-21T06:33:58.815Z,100026.73
2019-05-21T06:36:28.702Z,100041.27
2019-05-21T06:38:58.399Z,100046.70
2019-05-21T06:41:28.223Z,100044.02
2019-05-21T06:43:57.999Z,100044.02
2019-05-21T06:46:27.919Z,100046.38
2019-05-21T06:48:57.647Z,100053.38
2019-05-21T06:51:27.477Z,100062.98
2019-05-21T06:53:57.253Z,100065.88
2019-05-21T06:56:27.134Z,100064.08
2019-05-21T06:58:56.917Z,100062.84
2019-05-21T07:01:29.194Z,100070.06
2019-05-21T07:03:58.474Z,100078.01
2019-05-21T07:06:28.362Z,100080.30
2019-05-21T07:08:58.179Z,100081.96
2019-05-21T07:11:28.011Z,100085.14
2019-05-21T07:13:57.843Z,100087.97
2019-05-21T07:16:27.665Z,100085.23
2019-05-21T07:18:57.423Z,100083.78
2019-05-21T07:21:27.300Z,100094.09
2019-05-21T07:23:57.094Z,100078.72
2019-05-21T07:26:26.864Z,100083.71
2019-05-21T07:28:57.087Z,100080.75
2019-05-21T07:31:28.561Z,100077.09
2019-05-21T07:33:58.384Z,100083.20
2019-05-21T07:36:28.157Z,100086.14
2019-05-21T07:38:58.028Z,100081.29
2019-05-21T07:41:28.822Z,100078.33
2019-05-21T07:43:58.643Z,100070.83
2019-05-21T07:46:28.467Z,100068.72
2019-05-21T07:48:58.304Z,100077.53
2019-05-21T07:51:28.140Z,100070.85
2019-05-21T07:53:57.880Z,100079.41
2019-05-21T07:56:27.736Z,100077.53
2019-05-21T07:58:57.480Z,100083.52
2019-05-21T08:01:27.307Z,100082.16
2019-05-21T08:03:57.219Z,100090.85
2019-05-21T08:06:27.133Z,100099.62
2019-05-21T08:09:12.294Z,100097.22
2019-05-21T08:11:28.511Z,100104.19
2019-05-21T08:13:58.389Z,100110.98
2019-05-21T08:16:28.248Z,100106.49
2019-05-21T08:18:58.135Z,100111.84
2019-05-21T08:21:28.072Z,100119.00
2019-05-21T08:23:57.787Z,100123.98
2019-05-21T08:26:27.618Z,100118.39
2019-05-21T08:28:57.389Z,100122.02
2019-05-21T08:31:27.140Z,100124.77
2019-05-21T08:33:57.009Z,100126.44
2019-05-21T08:36:26.883Z,100124.70
2019-05-21T08:38:56.606Z,100121.09
2019-05-21T08:41:26.440Z,100121.58
2019-05-21T08:43:56.276Z,100118.95
2019-05-21T08:46:27.178Z,100113.95
2019-05-21T08:48:56.933Z,100109.30
2019-05-21T08:51:26.683Z,100113.09
2019-05-21T08:53:56.532Z,100116.23
2019-05-21T08:56:26.270Z,100121.11
2019-05-21T08:58:56.117Z,100112.08
2019-05-21T09:01:25.953Z,100112.00
2019-05-21T09:03:55.837Z,100109.19
2019-05-21T09:06:25.716Z,100112.56
2019-05-21T09:08:55.505Z,100101.52
2019-05-21T09:11:25.191Z,100108.18
2019-05-21T09:13:55.175Z,100102.52
2019-05-21T09:16:25.066Z,100100.22
2019-05-21T09:18:54.895Z,100097.53
2019-05-21T09:21:24.688Z,100098.33
2019-05-21T09:23:54.512Z,100094.16
2019-05-21T09:26:24.319Z,100094.25
2019-05-21T09:28:54.136Z,100104.78
2019-05-21T09:31:23.913Z,100105.28
2019-05-21T09:33:53.662Z,100106.34
2019-05-21T09:36:25.327Z,100108.64
2019-05-21T09:38:55.895Z,100113.03
2019-05-21T09:41:25.765Z,100113.28
2019-05-21T09:43:56.547Z,100118.42
2019-05-21T09:46:26.428Z,100115.72
2019-05-21T09:48:56.309Z,100110.91
2019-05-21T09:51:27.123Z,100111.61
2019-05-21T09:53:56.972Z,100115.16
2019-05-21T09:56:33.010Z,100112.72
2019-05-21T09:59:20.125Z,100109.16
2019-05-21T10:01:51.347Z,100117.08
2019-05-21T10:04:21.185Z,100121.33
2019-05-21T10:06:50.968Z,100115.25
2019-05-21T10:09:21.099Z,100117.48
2019-05-21T10:11:50.825Z,100108.23
2019-05-21T10:14:20.633Z,100107.50
2019-05-21T10:16:50.516Z,100111.20
2019-05-21T10:19:20.429Z,100114.03
2019-05-21T10:21:50.276Z,100116.95
2019-05-21T10:24:20.123Z,100113.74
2019-05-21T10:26:50.052Z,100114.25
2019-05-21T10:29:19.897Z,100117.10
2019-05-21T10:31:49.714Z,100122.36
2019-05-21T10:34:19.544Z,100131.52
2019-05-21T10:36:49.349Z,100128.87
2019-05-21T10:39:19.264Z,100141.10
2019-05-21T10:41:49.059Z,100149.34
2019-05-21T10:44:19.047Z,100148.77
2019-05-21T10:46:48.971Z,100157.47
2019-05-21T10:49:18.781Z,100159.89
2019-05-21T10:51:48.539Z,100156.82
2019-05-21T10:54:19.707Z,100153.64
2019-05-21T10:56:49.439Z,100156.86
2019-05-21T10:59:19.290Z,100155.41
2019-05-21T11:01:57.830Z,100160.09
2019-05-21T11:04:37.892Z,100159.23
2019-05-21T11:07:08.634Z,100149.55
2019-05-21T11:09:38.404Z,100152.11
2019-05-21T11:12:08.798Z,100154.57
2019-05-21T11:14:38.642Z,100157.46
2019-05-21T11:17:11.968Z,100156.91
2019-05-21T11:19:41.948Z,100157.72
2019-05-21T11:22:11.753Z,100157.11
2019-05-21T11:24:41.509Z,100146.27
2019-05-21T11:27:11.360Z,100141.54
2019-05-21T11:29:41.048Z,100143.01
2019-05-21T11:32:10.974Z,100137.91
2019-05-21T11:34:40.918Z,100136.75
2019-05-21T11:37:10.789Z,100138.86
2019-05-21T11:39:40.669Z,100145.66
2019-05-21T11:42:10.741Z,100143.56
2019-05-21T11:44:40.604Z,100136.27
2019-05-21T11:47:10.509Z,100139.09
2019-05-21T11:49:40.344Z,100139.21
2019-05-21T11:52:11.082Z,100142.03
2019-05-21T11:54:40.999Z,100129.72
2019-05-21T11:57:10.834Z,100134.56
2019-05-21T11:59:40.661Z,100144.95
2019-05-21T12:02:11.068Z,100144.48
2019-05-21T12:04:40.886Z,100148.56
2019-05-21T12:07:10.667Z,100151.44
2019-05-21T12:09:40.460Z,100152.41
2019-05-21T12:12:10.262Z,100162.58
2019-05-21T12:14:40.084Z,100159.23
2019-05-21T12:17:09.964Z,100162.19
2019-05-21T12:19:39.783Z,100164.22
2019-05-21T12:22:09.645Z,100166.63
2019-05-21T12:24:39.389Z,100166.00
2019-05-21T12:27:09.263Z,100166.03
2019-05-21T12:29:39.027Z,100162.34
2019-05-21T12:32:08.954Z,100166.18
2019-05-21T12:34:39.153Z,100173.06
2019-05-21T12:37:09.099Z,100169.80
2019-05-21T12:39:38.860Z,100166.16
2019-05-21T12:42:08.800Z,100171.11
2019-05-21T12:44:38.620Z,100180.92
2019-05-21T12:47:10.039Z,100178.48
2019-05-21T12:49:39.915Z,100185.41
2019-05-21T12:52:09.857Z,100174.05
2019-05-21T12:54:39.667Z,100167.95
2019-05-21T12:57:09.464Z,100162.00
2019-05-21T12:59:40.275Z,100167.08
2019-05-21T13:02:10.207Z,100167.23
2019-05-21T13:04:41.153Z,100164.23
2019-05-21T13:07:11.046Z,100165.25
2019-05-21T13:09:40.979Z,100167.24
2019-05-21T13:12:10.952Z,100171.98
2019-05-21T13:14:40.901Z,100171.77
2019-05-21T13:17:10.802Z,100176.89
2019-05-21T13:19:40.640Z,100177.90
2019-05-21T13:22:10.537Z,100171.75
2019-05-21T13:24:40.311Z,100173.73
2019-05-21T13:27:10.330Z,100179.05
2019-05-21T13:29:40.211Z,100174.44
2019-05-21T13:32:10.177Z,100172.20
2019-05-21T13:34:39.921Z,100169.37
2019-05-21T13:37:10.069Z,100174.24
2019-05-21T13:39:49.464Z,100165.85
2019-05-21T13:42:11.419Z,100172.79
2019-05-21T13:44:41.146Z,100179.16
2019-05-21T13:47:10.980Z,100179.77
2019-05-21T13:49:40.772Z,100190.14
2019-05-21T13:52:10.656Z,100189.27
2019-05-21T13:54:40.551Z,100190.22
2019-05-21T13:57:10.413Z,100204.08
2019-05-21T13:59:40.205Z,100197.86
2019-05-21T14:02:12.989Z,100207.80
2019-05-21T14:04:43.217Z,100203.78
2019-05-21T14:07:13.022Z,100211.09
2019-05-21T14:09:42.884Z,100208.03
2019-05-21T14:12:14.512Z,100211.44
2019-05-21T14:14:44.319Z,100218.69
2019-05-21T14:17:14.364Z,100213.02
2019-05-21T14:19:44.378Z,100219.19
2019-05-21T14:22:14.169Z,100223.50
2019-05-21T14:24:43.940Z,100220.87
2019-05-21T14:27:13.751Z,100209.64
2019-05-21T14:29:43.507Z,100217.39
2019-05-21T14:32:13.318Z,100223.05
2019-05-21T14:34:58.669Z,100226.44
2019-05-21T14:37:14.692Z,100222.52
2019-05-21T14:39:44.517Z,100231.48
2019-05-21T14:42:14.325Z,100240.39
2019-05-21T14:44:44.218Z,100240.61
2019-05-21T14:47:15.150Z,100238.42
2019-05-21T14:49:44.950Z,100243.55
2019-05-21T14:52:14.835Z,100241.59
2019-05-21T14:54:44.649Z,100248.23
2019-05-21T14:57:14.569Z,100240.52
2019-05-21T14:59:44.316Z,100242.56
2019-05-21T15:02:14.067Z,100240.21
2019-05-21T15:04:44.284Z,100249.23
2019-05-21T15:07:14.453Z,100249.99
2019-05-21T15:09:44.542Z,100242.79
2019-05-21T15:12:14.416Z,100233.38
2019-05-21T15:14:44.413Z,100242.50
2019-05-21T15:17:14.430Z,100241.37
2019-05-21T15:19:46.463Z,100249.97
2019-05-21T15:22:16.433Z,100247.05
2019-05-21T15:24:46.762Z,100247.61
2019-05-21T15:27:17.056Z,100242.89
2019-05-21T15:29:46.869Z,100249.75
2019-05-21T15:32:16.955Z,100255.62
2019-05-21T15:34:46.769Z,100245.11
2019-05-21T15:37:16.725Z,100241.09
2019-05-21T15:39:46.673Z,100256.48
2019-05-21T15:42:16.517Z,100263.33
2019-05-21T15:44:46.582Z,100274.73
2019-05-21T15:47:16.447Z,100281.44
2019-05-21T15:49:47.211Z,100273.27
2019-05-21T15:52:17.099Z,100280.38
2019-05-21T15:54:46.886Z,100279.80
2019-05-21T15:57:16.779Z,100294.94
2019-05-21T15:59:46.526Z,100296.28
2019-05-21T16:02:16.374Z,100297.38
2019-05-21T16:04:46.150Z,100296.64
2019-05-21T16:07:15.912Z,100297.27
2019-05-21T16:09:45.751Z,100296.45
2019-05-21T16:12:15.446Z,100290.14
2019-05-21T16:14:45.212Z,100312.22
2019-05-21T16:17:14.968Z,100306.28
2019-05-21T16:19:45.005Z,100309.55
2019-05-21T16:22:14.758Z,100304.78
2019-05-21T16:24:50.589Z,100309.20
2019-05-21T16:27:20.619Z,100317.55
2019-05-21T16:29:50.767Z,100323.57
2019-05-21T16:32:20.603Z,100326.13
2019-05-21T16:34:50.472Z,100319.84
2019-05-21T16:37:20.625Z,100329.95
2019-05-21T16:39:50.458Z,100342.92
2019-05-21T16:42:20.193Z,100337.50
2019-05-21T16:44:49.979Z,100340.45
2019-05-21T16:47:19.793Z,100335.80
2019-05-21T16:49:49.507Z,100345.34
2019-05-21T16:52:19.297Z,100345.34
2019-05-21T16:54:49.053Z,100366.33
2019-05-21T16:57:19.205Z,100351.55
2019-05-21T16:59:49.134Z,100354.45
2019-05-21T17:02:18.865Z,100365.25
2019-05-21T17:04:48.606Z,100366.23
2019-05-21T17:07:18.461Z,100367.49
2019-05-21T17:09:48.281Z,100362.56
2019-05-21T17:12:18.313Z,100362.56
2019-05-21T17:14:49.950Z,100369.86
2019-05-21T17:17:19.535Z,100380.93
2019-05-21T17:19:49.357Z,100379.89
2019-05-21T17:22:19.135Z,100379.22
2019-05-21T17:24:49.015Z,100380.43
2019-05-21T17:27:18.890Z,100384.45
2019-05-21T17:29:48.754Z,100391.06
2019-05-21T17:32:18.573Z,100402.49
2019-05-21T17:34:48.356Z,100404.25
2019-05-21T17:37:18.284Z,100406.14
2019-05-21T17:39:48.253Z,100407.42
2019-05-21T17:42:18.197Z,100412.73
2019-05-21T17:44:48.130Z,100407.19
2019-05-21T17:47:18.101Z,100410.40
2019-05-21T17:49:48.359Z,100403.83
2019-05-21T17:52:18.536Z,100405.91
2019-05-21T17:54:56.954Z,100413.55
2019-05-21T17:57:19.918Z,100416.87
2019-05-21T17:59:49.748Z,100424.92
2019-05-21T18:02:19.730Z,100431.56
2019-05-21T18:04:49.906Z,100434.48
2019-05-21T18:07:21.783Z,100436.20
2019-05-21T18:09:52.210Z,100439.11
2019-05-21T18:12:31.810Z,100438.45
2019-05-21T18:14:54.653Z,100445.42
2019-05-21T18:17:26.912Z,100443.72
2019-05-21T18:19:57.165Z,100446.97
2019-05-21T18:22:29.161Z,100452.00
2019-05-21T18:24:58.977Z,100460.45
2019-05-21T18:27:29.669Z,100474.64
2019-05-21T18:29:59.545Z,100476.81
2019-05-21T18:32:30.319Z,100481.55
2019-05-21T18:35:00.254Z,100489.27
2019-05-21T18:37:33.788Z,100484.48
2019-05-21T18:40:04.959Z,100491.67
2019-05-21T18:42:40.227Z,100488.27
2019-05-21T18:45:12.306Z,100493.56
2019-05-21T18:47:43.351Z,100492.24
2019-05-21T18:50:14.283Z,100493.89
2019-05-21T18:52:49.293Z,100498.20
2019-05-21T18:55:17.365Z,100505.47
2019-05-21T18:58:05.965Z,100508.04
2019-05-21T19:00:39.946Z,100498.88
2019-05-21T19:03:09.873Z,100493.93
2019-05-21T19:05:41.334Z,100503.97
2019-05-21T19:08:18.463Z,100505.92
2019-05-21T19:10:48.793Z,100505.28
2019-05-21T19:13:19.380Z,100524.34
2019-05-21T19:15:49.369Z,100531.14
2019-05-21T19:18:19.311Z,100532.30
2019-05-21T19:20:50.109Z,100538.24
2019-05-21T19:23:20.627Z,100539.65
2019-05-21T19:25:50.641Z,100546.19
2019-05-21T19:28:20.490Z,100543.38
2019-05-21T19:30:51.382Z,100555.11
2019-05-21T19:33:22.379Z,100552.98
2019-05-21T19:35:53.664Z,100557.95
2019-05-21T19:38:23.883Z,100562.53
2019-05-21T19:40:53.830Z,100566.55
2019-05-21T19:43:23.617Z,100571.19
2019-05-21T19:45:53.408Z,100577.13
2019-05-21T19:48:23.352Z,100578.36
2019-05-21T19:50:53.171Z,100594.64
2019-05-21T19:53:23.077Z,100595.31
2019-05-21T19:55:53.315Z,100593.83
2019-05-21T19:58:23.161Z,100591.27
2019-05-21T20:00:54.340Z,100587.15
2019-05-21T20:03:24.782Z,100593.74
2019-05-21T20:05:55.299Z,100586.30
2019-05-21T20:08:26.122Z,100596.79
2019-05-21T20:10:56.175Z,100593.17
2019-05-21T20:13:32.465Z,100597.38
2019-05-21T20:15:59.398Z,100598.19
2019-05-21T20:18:42.666Z,100594.47
2019-05-21T20:21:14.060Z,100584.39
2019-05-21T20:23:45.271Z,100587.30
2019-05-21T20:26:18.729Z,100589.95
2019-05-21T20:28:49.114Z,100601.33
2019-05-21T20:31:23.180Z,100596.13
2019-05-21T20:33:53.942Z,100590.36
2019-05-21T20:36:25.129Z,100596.64
2019-05-21T20:38:54.946Z,100600.50
2019-05-21T20:41:25.672Z,100589.87
2019-05-21T20:43:59.101Z,100590.92
2019-05-21T20:46:28.465Z,100599.45
2019-05-21T20:48:59.123Z,100592.25
2019-05-21T20:51:29.209Z,100600.60
2019-05-21T20:53:59.223Z,100601.91
2019-05-21T20:56:30.605Z,100591.09
2019-05-21T20:59:00.499Z,100582.91
2019-05-21T21:01:31.427Z,100587.38
2019-05-21T21:04:01.736Z,100594.98
2019-05-21T21:06:35.622Z,100581.77
2019-05-21T21:09:10.369Z,100591.17
2019-05-21T21:11:41.534Z,100593.33
2019-05-21T21:14:17.963Z,100590.92
2019-05-21T21:16:46.070Z,100595.14
2019-05-21T21:19:16.285Z,100603.37
2019-05-21T21:21:46.839Z,100598.98
2019-05-21T21:24:17.549Z,100605.25
2019-05-21T21:26:48.041Z,100615.32
2019-05-21T21:29:18.860Z,100610.11
2019-05-21T21:31:48.521Z,100619.03
2019-05-21T21:34:18.934Z,100627.61
2019-05-21T21:36:52.988Z,100628.20
2019-05-21T21:39:21.313Z,100623.05
2019-05-21T21:41:51.516Z,100627.41
2019-05-21T21:44:33.673Z,100627.81
2019-05-21T21:46:55.019Z,100625.66
2019-05-21T21:49:27.948Z,100630.77
2019-05-21T21:52:00.214Z,100630.13
2019-05-21T21:54:31.037Z,100628.77
2019-05-21T21:57:00.995Z,100622.47
2019-05-21T21:59:30.827Z,100626.66
2019-05-21T22:02:10.675Z,100629.77
2019-05-21T22:04:41.865Z,100631.36
2019-05-21T22:07:11.838Z,100630.52
2019-05-21T22:09:42.893Z,100634.56
2019-05-21T22:12:17.488Z,100635.20
2019-05-21T22:14:52.650Z,100638.02
2019-05-21T22:17:22.724Z,100648.33
2019-05-21T22:19:52.646Z,100644.17
2019-05-21T22:22:22.722Z,100642.33
2019-05-21T22:24:52.548Z,100643.48
2019-05-21T22:27:22.586Z,100648.19
2019-05-21T22:29:53.217Z,100649.92
2019-05-21T22:32:23.370Z,100662.98
2019-05-21T22:34:53.337Z,100666.43
2019-05-21T22:37:25.457Z,100662.31
2019-05-21T22:39:55.417Z,100660.53
2019-05-21T22:42:25.563Z,100661.73
2019-05-21T22:45:07.269Z,100666.27
2019-05-21T22:47:27.818Z,100664.53
2019-05-21T22:49:57.664Z,100669.84
2019-05-21T22:52:27.542Z,100661.43
2019-05-21T22:54:57.358Z,100660.08
2019-05-21T22:57:27.107Z,100658.17
2019-05-21T22:59:57.096Z,100661.95
2019-05-21T23:02:30.480Z,100658.56
2019-05-21T23:05:01.494Z,100668.63
2019-05-21T23:07:31.867Z,100659.96
2019-05-21T23:10:01.760Z,100668.24
2019-05-21T23:12:32.406Z,100665.23
2019-05-21T23:15:02.662Z,100661.88
2019-05-21T23:17:34.259Z,100659.08
2019-05-21T23:20:13.505Z,100656.78
2019-05-21T23:22:47.237Z,100667.66
2019-05-21T23:25:19.463Z,100667.35
2019-05-21T23:27:51.277Z,100664.80
2019-05-21T23:30:21.257Z,100663.84
2019-05-21T23:32:52.207Z,100661.41
2019-05-21T23:35:22.482Z,100664.94
2019-05-21T23:37:53.255Z,100666.08
2019-05-21T23:40:24.638Z,100668.88
2019-05-21T23:42:54.971Z,100663.71
2019-05-21T23:45:24.840Z,100661.37
2019-05-21T23:47:54.799Z,100658.82
2019-05-21T23:50:26.411Z,100662.05
2019-05-21T23:52:56.519Z,100659.63
2019-05-21T23:55:26.640Z,100657.47
2019-05-21T23:57:56.525Z,100658.11
